createdAt,value
2019-05-07T00:01:57.004Z,99.90
2019-05-07T00:04:25.433Z,99.90
2019-05-07T00:06:53.836Z,99.90
2019-05-07T00:09:23.364Z,99.90
2019-05-07T00:11:53.375Z,99.90
2019-05-07T00:14:23.091Z,99.90
2019-05-07T00:16:53.477Z,99.90
2019-05-07T00:19:23.080Z,99.90
2019-05-07T00:21:52.767Z,99.90
2019-05-07T00:24:22.303Z,99.90
2019-05-07T00:26:53.215Z,99.90
2019-05-07T00:29:22.511Z,99.90
2019-05-07T00:31:52.056Z,99.90
2019-05-07T00:34:23.249Z,99.90
2019-05-07T00:37:02.167Z,99.90
2019-05-07T00:39:56.313Z,99.90
2019-05-07T00:42:56.524Z,99.90
2019-05-07T00:45:32.604Z,99.90
2019-05-07T00:48:02.912Z,99.90
2019-05-07T00:50:33.537Z,99.90
2019-05-07T00:53:02.168Z,99.90
2019-05-07T00:55:32.600Z,99.90
2019-05-07T00:58:02.378Z,99.90
2019-05-07T01:00:33.226Z,99.90
2019-05-07T01:03:03.083Z,99.90
2019-05-07T01:05:32.566Z,99.90
2019-05-07T01:08:02.539Z,99.90
2019-05-07T01:10:32.970Z,99.90
2019-05-07T01:13:02.791Z,99.90
2019-05-07T01:15:34.350Z,99.90
2019-05-07T01:18:02.859Z,99.90
2019-05-07T01:20:32.979Z,99.90
2019-05-07T01:23:02.590Z,99.90
2019-05-07T01:25:33.044Z,99.90
2019-05-07T01:28:02.634Z,99.90
2019-05-07T01:30:32.539Z,99.90
2019-05-07T01:33:07.561Z,99.90
2019-05-07T01:35:54.391Z,99.90
2019-05-07T01:38:23.022Z,99.90
2019-05-07T01:40:52.108Z,99.90
2019-05-07T01:43:22.656Z,99.90
2019-05-07T01:45:52.960Z,99.90
2019-05-07T01:48:22.981Z,99.90
2019-05-07T01:50:52.535Z,99.90
2019-05-07T01:53:22.730Z,99.90
2019-05-07T01:55:52.381Z,99.90
2019-05-07T01:58:22.125Z,99.90
2019-05-07T02:00:53.005Z,99.90
2019-05-07T02:03:56.328Z,99.90
2019-05-07T02:06:35.960Z,99.90
2019-05-07T02:09:19.880Z,99.90
2019-05-07T02:12:08.572Z,99.90
2019-05-07T02:14:36.967Z,99.90
2019-05-07T02:17:05.367Z,99.90
2019-05-07T02:19:33.828Z,99.90
2019-05-07T02:22:02.940Z,99.90
2019-05-07T02:24:33.703Z,99.90
2019-05-07T02:27:02.974Z,99.90
2019-05-07T02:29:32.365Z,99.90
2019-05-07T02:32:04.152Z,99.90
2019-05-07T02:34:34.280Z,99.90
2019-05-07T02:37:04.241Z,99.90
2019-05-07T02:39:58.325Z,99.90
2019-05-07T02:42:26.743Z,99.90
2019-05-07T02:45:04.485Z,99.90
2019-05-07T02:47:34.013Z,99.90
2019-05-07T02:50:09.506Z,99.90
2019-05-07T02:52:56.654Z,99.90
2019-05-07T02:55:46.637Z,99.90
2019-05-07T02:58:15.148Z,99.90
2019-05-07T03:00:43.833Z,99.90
2019-05-07T03:03:13.748Z,99.90
2019-05-07T03:05:43.420Z,99.90
2019-05-07T03:08:13.525Z,99.90
2019-05-07T03:10:43.508Z,99.90
2019-05-07T03:13:13.747Z,99.90
2019-05-07T03:15:43.467Z,99.90
2019-05-07T03:18:13.894Z,99.90
2019-05-07T03:20:53.450Z,99.90
2019-05-07T03:23:25.202Z,99.90
2019-05-07T03:25:59.534Z,99.90
2019-05-07T03:28:33.581Z,99.90
2019-05-07T03:31:16.899Z,99.90
2019-05-07T03:34:07.082Z,99.90
2019-05-07T03:36:47.735Z,99.90
2019-05-07T03:39:15.251Z,99.90
2019-05-07T03:41:44.449Z,99.90
2019-05-07T03:44:26.279Z,99.90
2019-05-07T03:47:02.349Z,99.90
2019-05-07T03:49:28.782Z,99.90
2019-05-07T03:51:58.864Z,99.90
2019-05-07T03:54:27.865Z,99.90
2019-05-07T03:56:56.232Z,99.90
2019-05-07T03:59:24.813Z,99.90
2019-05-07T04:01:53.933Z,99.90
2019-05-07T04:04:24.296Z,99.90
2019-05-07T04:06:53.774Z,99.90
2019-05-07T04:09:24.155Z,99.90
2019-05-07T04:11:53.105Z,99.90
2019-05-07T04:14:23.140Z,99.90
2019-05-07T04:16:53.611Z,99.90
2019-05-07T04:19:23.584Z,99.90
2019-05-07T04:21:53.413Z,99.90
2019-05-07T04:24:29.131Z,99.90
2019-05-07T04:27:04.469Z,99.90
2019-05-07T04:29:35.025Z,99.90
2019-05-07T04:32:03.412Z,99.90
2019-05-07T04:35:04.066Z,99.90
2019-05-07T04:37:33.363Z,99.90
2019-05-07T04:40:04.284Z,99.90
2019-05-07T04:42:33.309Z,99.90
2019-05-07T04:45:04.221Z,99.90
2019-05-07T04:47:41.596Z,99.90
2019-05-07T04:50:04.034Z,99.90
2019-05-07T04:52:35.185Z,99.90
2019-05-07T04:55:06.556Z,99.90
2019-05-07T04:57:36.263Z,99.90
2019-05-07T05:00:08.998Z,99.90
2019-05-07T05:02:57.064Z,99.90
2019-05-07T05:05:27.250Z,99.90
2019-05-07T05:07:55.740Z,99.90
2019-05-07T05:10:27.835Z,99.90
2019-05-07T05:12:59.077Z,99.90
2019-05-07T05:15:27.910Z,99.90
2019-05-07T05:17:56.589Z,99.90
2019-05-07T05:20:33.604Z,99.90
2019-05-07T05:23:33.976Z,99.90
2019-05-07T05:26:03.488Z,99.90
2019-05-07T05:28:32.434Z,99.90
2019-05-07T05:31:03.442Z,99.90
2019-05-07T05:33:32.455Z,99.90
2019-05-07T05:36:03.099Z,99.90
2019-05-07T05:38:33.090Z,99.90
2019-05-07T05:41:03.416Z,99.90
2019-05-07T05:43:37.954Z,99.90
2019-05-07T05:46:07.768Z,99.90
2019-05-07T05:48:36.160Z,99.90
2019-05-07T05:51:23.024Z,99.90
2019-05-07T05:54:02.029Z,99.90
2019-05-07T05:56:40.062Z,99.90
2019-05-07T05:59:49.297Z,99.90
2019-05-07T06:02:34.671Z,99.90
2019-05-07T06:05:28.560Z,99.90
2019-05-07T06:08:04.196Z,99.90
2019-05-07T06:10:47.694Z,99.90
2019-05-07T06:13:23.097Z,99.90
2019-05-07T06:16:13.658Z,99.90
2019-05-07T06:18:54.353Z,99.90
2019-05-07T06:21:41.925Z,99.90
2019-05-07T06:24:14.300Z,99.90
2019-05-07T06:26:42.750Z,99.90
2019-05-07T06:29:11.922Z,99.90
2019-05-07T06:31:42.220Z,99.90
2019-05-07T06:34:12.437Z,99.90
2019-05-07T06:36:42.405Z,99.90
2019-05-07T06:39:22.166Z,99.90
2019-05-07T06:42:08.730Z,99.90
2019-05-07T06:44:37.314Z,99.90
2019-05-07T06:47:05.736Z,99.90
2019-05-07T06:49:34.144Z,99.90
2019-05-07T06:52:02.997Z,99.90
2019-05-07T06:54:32.190Z,99.90
2019-05-07T06:57:01.979Z,99.90
2019-05-07T06:59:36.422Z,99.90
2019-05-07T07:02:42.553Z,99.90
2019-05-07T07:05:37.434Z,99.90
2019-05-07T07:08:13.737Z,99.90
2019-05-07T07:11:17.844Z,99.90
2019-05-07T07:13:46.227Z,99.90
2019-05-07T07:16:14.761Z,99.90
2019-05-07T07:18:51.807Z,99.90
2019-05-07T07:21:13.654Z,99.90
2019-05-07T07:23:42.920Z,99.90
2019-05-07T07:26:12.610Z,99.90
2019-05-07T07:28:42.957Z,99.90
2019-05-07T07:31:42.461Z,99.90
2019-05-07T07:34:12.827Z,99.90
2019-05-07T07:37:01.791Z,99.90
2019-05-07T07:39:18.623Z,99.90
2019-05-07T07:41:58.588Z,99.90
2019-05-07T07:44:27.015Z,99.90
2019-05-07T07:46:57.247Z,99.90
2019-05-07T07:49:25.647Z,99.90
2019-05-07T07:51:54.226Z,99.90
2019-05-07T07:54:22.945Z,99.90
2019-05-07T07:57:12.644Z,99.90
2019-05-07T07:59:52.907Z,99.90
2019-05-07T08:02:32.560Z,99.90
2019-05-07T08:05:02.079Z,99.90
2019-05-07T08:07:32.927Z,99.90
2019-05-07T08:10:02.597Z,99.90
2019-05-07T08:12:32.504Z,99.90
2019-05-07T08:15:14.726Z,99.90
2019-05-07T08:17:32.652Z,99.90
2019-05-07T08:20:03.800Z,99.90
2019-05-07T08:22:32.978Z,99.90
2019-05-07T08:25:03.838Z,99.90
2019-05-07T08:27:32.579Z,99.30
2019-05-07T08:30:02.942Z,99.90
2019-05-07T08:32:43.847Z,99.90
2019-05-07T08:35:26.791Z,99.60
2019-05-07T08:37:55.290Z,99.90
2019-05-07T08:40:29.802Z,98.20
2019-05-07T08:42:58.904Z,98.40
2019-05-07T08:45:53.271Z,98.10
2019-05-07T08:48:27.227Z,97.20
2019-05-07T08:50:56.777Z,97.90
2019-05-07T08:53:25.291Z,98.40
2019-05-07T08:55:53.764Z,98.30
2019-05-07T08:58:22.489Z,96.50
2019-05-07T09:00:52.316Z,97.30
2019-05-07T09:03:39.106Z,97.30
2019-05-07T09:06:07.511Z,97.30
2019-05-07T09:08:35.896Z,97.00
2019-05-07T09:11:04.419Z,98.40
2019-05-07T09:13:33.356Z,97.30
2019-05-07T09:16:02.433Z,97.80
2019-05-07T09:18:32.211Z,95.70
2019-05-07T09:21:02.231Z,96.40
2019-05-07T09:23:31.960Z,94.50
2019-05-07T09:26:02.762Z,94.90
2019-05-07T09:28:53.801Z,95.10
2019-05-07T09:31:29.375Z,95.40
2019-05-07T09:33:57.933Z,95.70
2019-05-07T09:36:38.958Z,94.20
2019-05-07T09:39:07.618Z,96.80
2019-05-07T09:41:36.000Z,96.20
2019-05-07T09:44:04.506Z,96.00
2019-05-07T09:46:34.608Z,94.30
2019-05-07T09:49:03.252Z,94.20
2019-05-07T09:51:32.280Z,95.10
2019-05-07T09:54:02.544Z,94.60
2019-05-07T09:56:32.006Z,94.40
2019-05-07T09:59:02.502Z,94.20
2019-05-07T10:01:31.936Z,95.10
2019-05-07T10:04:02.631Z,95.20
2019-05-07T10:06:32.045Z,94.20
2019-05-07T10:09:02.710Z,96.60
2019-05-07T10:11:37.726Z,96.50
2019-05-07T10:14:09.138Z,97.40
2019-05-07T10:16:47.693Z,95.60
2019-05-07T10:19:16.228Z,91.90
2019-05-07T10:21:44.739Z,91.40
2019-05-07T10:24:13.211Z,92.60
2019-05-07T10:26:42.848Z,92.70
2019-05-07T10:29:12.692Z,93.00
2019-05-07T10:31:43.032Z,91.50
2019-05-07T10:34:12.341Z,91.70
2019-05-07T10:36:42.142Z,90.50
2019-05-07T10:39:12.868Z,88.60
2019-05-07T10:41:42.452Z,90.20
2019-05-07T10:44:14.513Z,88.80
2019-05-07T10:47:05.297Z,92.30
2019-05-07T10:49:42.274Z,92.60
2019-05-07T10:52:12.533Z,89.70
2019-05-07T10:54:41.744Z,90.90
2019-05-07T10:57:11.935Z,87.70
2019-05-07T10:59:42.229Z,87.10
2019-05-07T11:02:17.643Z,90.40
2019-05-07T11:04:46.058Z,90.20
2019-05-07T11:07:14.529Z,91.50
2019-05-07T11:09:42.944Z,91.00
2019-05-07T11:12:12.740Z,91.20
2019-05-07T11:14:41.319Z,88.30
2019-05-07T11:17:16.406Z,91.20
2019-05-07T11:19:44.868Z,88.20
2019-05-07T11:22:13.335Z,91.10
2019-05-07T11:24:42.715Z,91.80
2019-05-07T11:27:13.026Z,91.60
2019-05-07T11:29:42.976Z,88.80
2019-05-07T11:32:12.426Z,86.70
2019-05-07T11:34:43.499Z,87.60
2019-05-07T11:37:12.074Z,88.60
2019-05-07T11:39:42.679Z,84.70
2019-05-07T11:42:40.046Z,89.00
2019-05-07T11:45:13.944Z,85.60
2019-05-07T11:47:42.335Z,88.60
2019-05-07T11:50:35.291Z,88.20
2019-05-07T11:53:06.652Z,89.00
2019-05-07T11:55:35.021Z,91.20
2019-05-07T11:58:04.004Z,84.70
2019-05-07T12:00:56.253Z,88.20
2019-05-07T12:03:24.791Z,85.80
2019-05-07T12:05:53.261Z,84.10
2019-05-07T12:08:23.732Z,82.90
2019-05-07T12:10:52.973Z,87.40
2019-05-07T12:13:21.922Z,82.10
2019-05-07T12:15:52.076Z,81.80
2019-05-07T12:18:22.701Z,85.10
2019-05-07T12:20:53.853Z,84.00
2019-05-07T12:23:22.597Z,77.90
2019-05-07T12:25:52.935Z,76.10
2019-05-07T12:28:22.486Z,69.90
2019-05-07T12:31:17.250Z,78.80
2019-05-07T12:34:08.231Z,78.80
2019-05-07T12:36:36.608Z,76.20
2019-05-07T12:39:08.148Z,75.60
2019-05-07T12:41:36.651Z,71.90
2019-05-07T12:44:07.230Z,73.60
2019-05-07T12:46:36.237Z,69.10
2019-05-07T12:49:06.304Z,73.70
2019-05-07T12:51:54.277Z,69.60
2019-05-07T12:54:42.368Z,70.80
2019-05-07T12:57:11.777Z,70.20
2019-05-07T12:59:42.458Z,72.60
2019-05-07T13:02:40.574Z,68.40
2019-05-07T13:05:04.652Z,62.90
2019-05-07T13:08:01.695Z,61.70
2019-05-07T13:10:38.267Z,62.70
2019-05-07T13:13:06.769Z,66.90
2019-05-07T13:15:35.253Z,60.60
2019-05-07T13:18:03.766Z,60.80
2019-05-07T13:20:34.119Z,58.30
2019-05-07T13:23:02.856Z,60.40
2019-05-07T13:25:32.395Z,60.90
2019-05-07T13:28:02.732Z,58.10
2019-05-07T13:30:31.514Z,58.80
2019-05-07T13:33:03.007Z,59.80
2019-05-07T13:35:31.996Z,59.30
2019-05-07T13:38:23.694Z,59.70
2019-05-07T13:41:12.821Z,57.90
2019-05-07T13:44:00.261Z,63.70
2019-05-07T13:46:30.738Z,56.40
2019-05-07T13:48:59.470Z,55.20
2019-05-07T13:51:30.709Z,56.50
2019-05-07T13:53:59.167Z,55.70
2019-05-07T13:56:28.033Z,58.60
2019-05-07T13:58:56.781Z,58.90
2019-05-07T14:01:43.416Z,59.30
2019-05-07T14:04:12.881Z,59.10
2019-05-07T14:06:42.926Z,57.10
2019-05-07T14:09:18.939Z,54.00
2019-05-07T14:11:48.250Z,56.50
2019-05-07T14:14:16.827Z,52.50
2019-05-07T14:16:45.236Z,57.20
2019-05-07T14:19:13.748Z,54.90
2019-05-07T14:21:42.538Z,55.00
2019-05-07T14:24:12.438Z,54.50
2019-05-07T14:26:42.224Z,53.80
2019-05-07T14:29:11.785Z,54.10
2019-05-07T14:31:42.505Z,55.80
2019-05-07T14:34:27.731Z,52.80
2019-05-07T14:37:08.272Z,53.10
2019-05-07T14:39:36.849Z,54.20
2019-05-07T14:42:08.085Z,53.10
2019-05-07T14:44:49.528Z,57.50
2019-05-07T14:47:22.242Z,53.60
2019-05-07T14:49:52.992Z,52.80
2019-05-07T14:52:31.966Z,54.40
2019-05-07T14:54:52.404Z,55.40
2019-05-07T14:57:22.125Z,57.20
2019-05-07T14:59:52.382Z,56.60
2019-05-07T15:02:20.947Z,53.90
2019-05-07T15:04:52.070Z,54.10
2019-05-07T15:07:22.454Z,56.00
2019-05-07T15:09:51.892Z,55.80
2019-05-07T15:12:20.447Z,55.40
2019-05-07T15:14:49.364Z,55.60
2019-05-07T15:17:27.904Z,56.20
2019-05-07T15:19:58.212Z,55.40
2019-05-07T15:22:48.633Z,55.70
2019-05-07T15:25:12.599Z,57.20
2019-05-07T15:27:42.090Z,56.80
2019-05-07T15:30:11.762Z,56.90
2019-05-07T15:32:40.193Z,56.30
2019-05-07T15:35:08.724Z,58.00
2019-05-07T15:37:37.126Z,58.10
2019-05-07T15:40:06.066Z,59.40
2019-05-07T15:42:34.458Z,59.80
2019-05-07T15:45:03.228Z,63.20
2019-05-07T15:47:38.313Z,59.90
2019-05-07T15:50:07.701Z,61.80
2019-05-07T15:52:51.460Z,60.80
2019-05-07T15:55:15.020Z,59.90
2019-05-07T15:57:43.432Z,59.20
2019-05-07T16:00:14.558Z,59.60
2019-05-07T16:02:46.002Z,59.50
2019-05-07T16:05:15.089Z,60.10
2019-05-07T16:07:45.379Z,60.90
2019-05-07T16:10:15.132Z,63.70
2019-05-07T16:12:44.316Z,64.30
2019-05-07T16:15:14.207Z,64.00
2019-05-07T16:17:47.134Z,62.80
2019-05-07T16:20:15.964Z,62.20
2019-05-07T16:22:48.200Z,63.40
2019-05-07T16:25:16.600Z,64.10
2019-05-07T16:27:44.976Z,64.80
2019-05-07T16:30:14.450Z,66.10
2019-05-07T16:32:42.983Z,65.20
2019-05-07T16:35:12.434Z,65.30
2019-05-07T16:37:42.886Z,66.70
2019-05-07T16:40:12.847Z,66.80
2019-05-07T16:42:42.862Z,68.80
2019-05-07T16:45:15.152Z,69.00
2019-05-07T16:47:43.550Z,68.50
2019-05-07T16:50:13.102Z,69.80
2019-05-07T16:52:42.083Z,70.90
2019-05-07T16:55:12.268Z,70.00
2019-05-07T16:57:54.382Z,68.40
2019-05-07T17:00:31.856Z,70.60
2019-05-07T17:03:03.242Z,71.10
2019-05-07T17:05:32.109Z,73.00
2019-05-07T17:08:27.628Z,72.90
2019-05-07T17:10:59.381Z,73.00
2019-05-07T17:13:27.890Z,74.60
2019-05-07T17:15:57.299Z,74.10
2019-05-07T17:18:27.173Z,74.40
2019-05-07T17:20:56.712Z,74.70
2019-05-07T17:23:25.500Z,75.40
2019-05-07T17:25:54.516Z,76.30
2019-05-07T17:28:23.023Z,75.90
2019-05-07T17:30:52.426Z,76.80
2019-05-07T17:33:22.822Z,77.00
2019-05-07T17:35:51.884Z,77.40
2019-05-07T17:38:22.864Z,77.30
2019-05-07T17:41:09.983Z,78.30
2019-05-07T17:43:28.458Z,78.20
2019-05-07T17:45:57.863Z,78.90
2019-05-07T17:48:26.371Z,80.40
2019-05-07T17:51:15.771Z,80.60
2019-05-07T17:53:56.891Z,80.00
2019-05-07T17:56:14.649Z,79.70
2019-05-07T17:58:43.219Z,79.60
2019-05-07T18:01:11.800Z,82.20
2019-05-07T18:03:42.638Z,80.70
2019-05-07T18:06:12.557Z,81.40
2019-05-07T18:08:41.081Z,82.70
2019-05-07T18:11:18.564Z,82.40
2019-05-07T18:13:39.975Z,82.20
2019-05-07T18:16:32.480Z,83.90
2019-05-07T18:19:02.126Z,84.10
2019-05-07T18:21:32.607Z,84.10
2019-05-07T18:24:13.351Z,83.70
2019-05-07T18:26:33.903Z,84.10
2019-05-07T18:29:02.877Z,84.80
2019-05-07T18:31:46.967Z,85.30
2019-05-07T18:34:15.650Z,87.50
2019-05-07T18:36:44.037Z,86.90
2019-05-07T18:39:12.737Z,88.10
2019-05-07T18:41:42.757Z,89.10
2019-05-07T18:44:13.527Z,89.30
2019-05-07T18:46:41.865Z,90.20
2019-05-07T18:49:12.628Z,90.60
2019-05-07T18:51:42.664Z,90.60
2019-05-07T18:54:13.262Z,91.20
2019-05-07T18:56:42.187Z,91.90
2019-05-07T18:59:11.852Z,91.80
2019-05-07T19:01:42.537Z,91.50
2019-05-07T19:04:12.936Z,91.20
2019-05-07T19:06:42.516Z,91.30
2019-05-07T19:09:11.253Z,90.80
2019-05-07T19:11:40.144Z,91.80
2019-05-07T19:14:08.583Z,91.80
2019-05-07T19:16:37.294Z,91.50
2019-05-07T19:19:05.966Z,91.90
2019-05-07T19:21:34.359Z,91.90
2019-05-07T19:24:02.924Z,92.00
2019-05-07T19:26:31.442Z,92.30
2019-05-07T19:28:59.880Z,92.50
2019-05-07T19:31:29.046Z,92.70
2019-05-07T19:33:57.608Z,92.60
2019-05-07T19:36:26.012Z,93.40
2019-05-07T19:38:54.490Z,93.20
2019-05-07T19:41:23.294Z,93.50
2019-05-07T19:43:52.744Z,93.50
2019-05-07T19:46:22.814Z,94.10
2019-05-07T19:48:52.128Z,94.20
2019-05-07T19:51:20.816Z,94.10
2019-05-07T19:53:49.211Z,94.30
2019-05-07T19:56:22.009Z,94.30
2019-05-07T19:58:52.649Z,94.70
2019-05-07T20:01:32.784Z,94.80
2019-05-07T20:04:02.590Z,94.90
2019-05-07T20:06:32.411Z,95.30
2019-05-07T20:09:09.834Z,95.60
2019-05-07T20:11:40.033Z,95.50
2019-05-07T20:14:08.426Z,95.90
2019-05-07T20:16:38.048Z,96.30
2019-05-07T20:19:06.952Z,96.40
2019-05-07T20:21:35.767Z,96.60
2019-05-07T20:24:04.824Z,96.50
2019-05-07T20:26:33.322Z,96.80
2019-05-07T20:29:03.091Z,97.10
2019-05-07T20:31:33.503Z,97.00
2019-05-07T20:34:04.229Z,97.30
2019-05-07T20:36:32.970Z,97.70
2019-05-07T20:39:02.221Z,98.20
2019-05-07T20:41:33.208Z,98.00
2019-05-07T20:44:02.784Z,97.90
2019-05-07T20:46:32.072Z,97.80
2019-05-07T20:49:02.702Z,98.20
2019-05-07T20:51:32.570Z,98.50
2019-05-07T20:54:12.798Z,98.50
2019-05-07T20:56:46.721Z,98.50
2019-05-07T20:59:15.385Z,98.90
2019-05-07T21:01:43.894Z,99.10
2019-05-07T21:04:13.053Z,99.90
2019-05-07T21:06:43.139Z,99.90
2019-05-07T21:09:12.655Z,99.50
2019-05-07T21:11:43.111Z,99.30
2019-05-07T21:14:12.184Z,99.60
2019-05-07T21:16:42.486Z,99.90
2019-05-07T21:19:12.770Z,99.90
2019-05-07T21:21:42.307Z,99.90
2019-05-07T21:24:12.950Z,99.90
2019-05-07T21:26:42.363Z,99.90
2019-05-07T21:29:13.440Z,99.90
2019-05-07T21:31:43.142Z,99.90
2019-05-07T21:34:12.843Z,99.90
2019-05-07T21:36:43.446Z,99.90
2019-05-07T21:39:12.957Z,99.90
2019-05-07T21:41:43.021Z,99.90
2019-05-07T21:44:11.620Z,99.90
2019-05-07T21:46:42.342Z,99.90
2019-05-07T21:49:12.263Z,99.90
2019-05-07T21:51:40.883Z,99.90
2019-05-07T21:54:35.067Z,99.90
2019-05-07T21:57:23.055Z,99.90
2019-05-07T22:00:12.615Z,99.90
2019-05-07T22:02:41.872Z,99.90
2019-05-07T22:05:12.254Z,99.90
2019-05-07T22:07:40.816Z,99.90
2019-05-07T22:10:10.137Z,99.90
2019-05-07T22:12:39.154Z,99.90
2019-05-07T22:15:07.550Z,99.90
2019-05-07T22:17:36.038Z,99.90
2019-05-07T22:20:05.325Z,99.90
2019-05-07T22:22:33.723Z,99.90
2019-05-07T22:25:05.266Z,99.90
2019-05-07T22:27:32.804Z,99.90
2019-05-07T22:30:04.780Z,99.90
2019-05-07T22:32:47.020Z,99.90
2019-05-07T22:35:18.635Z,99.90
2019-05-07T22:37:47.017Z,99.90
2019-05-07T22:40:15.712Z,99.90
2019-05-07T22:42:44.108Z,99.90
2019-05-07T22:45:13.250Z,99.90
2019-05-07T22:47:42.038Z,99.90
2019-05-07T22:50:12.228Z,99.90
2019-05-07T22:52:40.639Z,99.90
2019-05-07T22:55:09.222Z,99.90
2019-05-07T22:57:56.324Z,99.90
2019-05-07T23:00:47.775Z,99.90
2019-05-07T23:03:16.173Z,99.90
2019-05-07T23:05:45.369Z,99.90
2019-05-07T23:08:13.759Z,99.90
2019-05-07T23:10:44.671Z,99.90
2019-05-07T23:13:13.102Z,99.90
2019-05-07T23:15:42.935Z,99.90
2019-05-07T23:18:12.984Z,99.90
2019-05-07T23:20:42.714Z,99.90
2019-05-07T23:23:14.161Z,99.90
2019-05-07T23:25:43.200Z,99.90
2019-05-07T23:28:12.550Z,99.90
2019-05-07T23:30:42.175Z,99.90
2019-05-07T23:33:12.118Z,99.90
2019-05-07T23:35:42.139Z,99.90
2019-05-07T23:38:12.218Z,99.90
2019-05-07T23:41:09.195Z,99.90
2019-05-07T23:43:37.430Z,99.90
2019-05-07T23:46:06.716Z,99.90
2019-05-07T23:48:35.247Z,99.90
2019-05-07T23:51:04.313Z,99.90
2019-05-07T23:53:32.698Z,99.90
2019-05-07T23:56:02.798Z,99.90
2019-05-07T23:58:32.640Z,99.90
